Time;durP1;ratioP1;P1;durP2;ratioP2;P2;SDS_P1;SDS_P2;PMS_P1;PMS_P2;Temp;Humidity;BMP_temperature;BMP_pressure;BME280_temperature;BME280_humidity;BME280_pressure;Samples;Min_cycle;Max_cycle;Signal;HPM_P1;HPM_P2
2021/05/18 00:00:44;;;;;;;22.90;14.73;;;14.60;99.90;;;14.96;73.20;100859.53;5095914;28;20561;-77
2021/05/18 00:03:17;;;;;;;20.92;13.50;;;14.60;99.90;;;14.93;73.64;100857.81;5114153;28;20076;-78
2021/05/18 00:05:48;;;;;;;23.10;14.63;;;14.60;99.90;;;14.92;73.93;100863.19;5114488;28;20478;-77
2021/05/18 00:08:18;;;;;;;22.63;15.02;;;14.60;99.90;;;14.89;73.97;100863.22;5095827;28;20036;-77
2021/05/18 00:13:42;;;;;;;25.17;15.25;;;14.50;99.90;;;14.84;74.32;100858.03;5079948;28;20434;-75
2021/05/18 00:16:11;;;;;;;23.05;15.48;;;14.60;99.90;;;14.86;74.40;100856.22;5113931;28;20050;-75
2021/05/18 00:18:39;;;;;;;26.13;16.17;;;14.50;99.90;;;14.87;74.41;100852.63;5113677;28;20039;-75
2021/05/18 00:21:07;;;;;;;25.00;16.10;;;14.50;99.90;;;14.87;74.55;100857.94;5095558;28;20051;-76
2021/05/18 00:23:37;;;;;;;22.42;15.38;;;14.50;99.90;;;14.22;74.44;100733.38;5113763;28;20075;-76
2021/05/18 00:26:08;;;;;;;22.65;15.43;;;14.50;99.90;;;14.90;74.75;100857.00;5113651;28;20430;-77
2021/05/18 00:28:36;;;;;;;26.20;16.23;;;14.50;99.90;;;14.84;74.94;100855.34;5113510;28;20043;-76
2021/05/18 00:31:04;;;;;;;27.42;17.00;;;14.50;99.90;;;14.64;75.13;100838.94;5113193;28;20058;-75
2021/05/18 00:33:33;;;;;;;25.70;17.25;;;14.50;99.90;;;14.65;75.70;100851.34;5113611;28;20043;-75
2021/05/18 00:36:03;;;;;;;25.30;17.95;;;14.40;99.90;;;14.46;76.19;100858.81;5113530;28;20052;-73
2021/05/18 00:38:31;;;;;;;27.08;19.17;;;14.30;99.90;;;14.24;77.10;100854.81;5095357;28;20397;-74
2021/05/18 00:41:01;;;;;;;32.38;19.25;;;14.00;99.90;;;14.09;78.21;100851.56;5113259;28;20112;-74
2021/05/18 00:43:29;;;;;;;29.50;18.63;;;14.00;99.90;;;14.03;79.00;100846.38;5095192;28;20056;-74
2021/05/18 00:45:57;;;;;;;28.00;19.50;;;13.80;99.90;;;14.14;79.04;100857.66;5113475;28;20428;-75
2021/05/18 00:48:25;;;;;;;25.65;18.83;;;13.80;99.90;;;14.26;79.14;100860.09;5113450;28;20054;-74
2021/05/18 00:50:59;;;;;;;28.15;18.80;;;13.90;99.90;;;13.76;79.52;100777.75;5095207;28;20112;-74
2021/05/18 00:53:28;;;;;;;29.13;20.15;;;13.90;99.90;;;14.37;79.93;100858.13;5095152;28;20075;-75
2021/05/18 00:56:08;;;;;;;30.00;19.50;;;14.00;99.90;;;14.43;79.57;100860.66;5094956;28;20055;-74
2021/05/18 00:58:39;;;;;;;31.30;20.23;;;14.10;99.90;;;14.36;80.03;100859.06;5113045;28;20120;-75
2021/05/18 01:01:10;;;;;;;;;;;14.10;99.90;;;14.45;79.67;100854.41;5113841;28;20069;-74
2021/05/18 01:03:39;;;;;;;32.20;22.38;;;14.20;99.90;;;14.56;79.43;100862.16;5113400;28;19931;-75
2021/05/18 01:06:25;;;;;;;35.88;22.73;;;14.20;99.90;;;14.63;79.08;100857.59;5094979;28;20071;-75
2021/05/18 01:08:56;;;;;;;29.92;22.52;;;14.30;99.90;;;14.64;78.73;100864.66;5113357;28;20078;-74
2021/05/18 01:11:28;;;;;;;33.40;23.80;;;14.30;99.90;;;14.67;78.86;100864.63;5113338;28;20082;-75
2021/05/18 01:14:01;;;;;;;34.50;23.52;;;14.30;99.90;;;14.72;78.52;100858.28;5113538;28;20039;-76
2021/05/18 01:16:34;;;;;;;35.95;24.13;;;14.40;99.90;;;14.63;78.31;100847.84;5112901;28;20520;-75
2021/05/18 01:19:02;;;;;;;33.60;22.88;;;14.40;99.90;;;14.80;78.46;100871.44;5113142;28;20044;-76
2021/05/18 01:21:31;;;;;;;32.88;24.05;;;14.50;99.90;;;14.80;78.24;100864.31;5113114;28;20043;-76
2021/05/18 01:24:01;;;;;;;36.67;23.27;;;14.50;99.90;;;14.90;78.06;100873.88;5094511;28;20043;-75
2021/05/18 01:26:32;;;;;;;31.52;22.40;;;14.50;99.90;;;14.92;77.63;100860.50;5095007;28;20134;-76
2021/05/18 01:29:07;;;;;;;36.63;22.80;;;14.60;99.90;;;14.81;77.75;100841.22;5113131;28;20504;-75
2021/05/18 01:31:44;;;;;;;33.10;22.77;;;14.60;99.90;;;14.83;77.42;100842.06;5094866;28;20043;-76
2021/05/18 01:34:13;;;;;;;30.40;23.15;;;14.70;99.90;;;14.98;77.42;100866.56;5113016;28;20487;-76
2021/05/18 01:36:45;;;;;;;31.38;23.00;;;14.70;99.90;;;14.96;77.75;100862.19;5094527;28;20046;-78
2021/05/18 01:39:42;;;;;;;34.88;23.60;;;14.60;99.90;;;14.94;78.53;100874.69;5094695;28;20054;-77
2021/05/18 01:44:57;;;;;;;31.27;23.02;;;14.60;99.90;;;14.94;78.44;100872.00;5098345;28;20092;-74
2021/05/18 01:47:25;;;;;;;32.75;22.90;;;14.60;99.90;;;14.96;78.59;100870.19;5098475;28;20055;-74
2021/05/18 01:49:54;;;;;;;35.15;22.67;;;14.60;99.90;;;14.79;79.18;100870.53;5098448;28;20044;-75
2021/05/18 01:52:23;;;;;;;23.38;19.77;;;14.50;99.90;;;14.90;78.64;100873.88;5098439;28;20051;-75
2021/05/18 01:54:52;;;;;;;21.25;13.77;;;14.50;99.90;;;14.78;78.12;100868.81;5116516;28;20051;-74
2021/05/18 01:57:21;;;;;;;21.35;12.85;;;14.50;99.90;;;14.73;77.13;100878.66;5116451;28;20477;-75
2021/05/18 02:00:14;;;;;;;13.13;10.10;;;14.40;99.90;;;14.61;76.84;100868.28;5115565;28;20496;-74
2021/05/18 02:02:49;;;;;;;11.15;7.88;;;14.30;99.90;;;14.38;77.52;100873.22;5098250;28;20051;-74
2021/05/18 02:05:28;;;;;;;11.40;8.15;;;14.10;99.90;;;14.31;77.16;100879.53;5098190;28;20055;-75
2021/05/18 02:08:19;;;;;;;8.57;7.43;;;14.00;99.90;;;14.16;77.37;100887.78;5074281;28;20052;-76
2021/05/18 02:10:51;;;;;;;8.30;7.03;;;13.80;99.90;;;14.09;77.96;100886.16;5098138;28;20047;-77
2021/05/18 02:13:19;;;;;;;8.52;7.50;;;13.80;99.90;;;14.00;78.15;100889.84;5098226;28;20051;-76
2021/05/18 02:15:52;;;;;;;10.18;7.35;;;13.60;99.90;;;13.94;78.23;100897.03;5098016;28;20071;-75
2021/05/18 02:18:54;;;;;;;10.43;8.68;;;13.60;99.90;;;13.96;78.54;100896.13;5097864;28;20067;-75
2021/05/18 02:21:42;;;;;;;11.95;8.98;;;13.60;99.90;;;13.78;78.99;100853.88;5098123;28;20054;-75
2021/05/18 02:26:58;;;;;;;11.75;9.70;;;13.50;99.90;;;13.82;79.52;100886.66;5097693;28;20077;-75
2021/05/18 02:29:27;;;;;;;10.43;9.10;;;13.50;99.90;;;13.75;79.51;100866.38;5097639;28;20065;-75
2021/05/18 02:31:56;;;;;;;11.10;9.90;;;13.50;99.90;;;13.95;79.03;100883.75;5097681;28;20066;-75
2021/05/18 02:34:40;;;;;;;10.63;8.68;;;13.60;99.90;;;13.92;79.07;100883.78;5097356;28;20043;-76
2021/05/18 02:37:09;;;;;;;11.98;10.52;;;13.60;99.90;;;13.80;80.00;100891.09;5097469;28;20070;-75
2021/05/18 02:39:40;;;;;;;13.75;10.05;;;13.50;99.90;;;13.84;80.07;100895.47;5097581;28;20552;-75
2021/05/18 02:42:09;;;;;;;12.65;10.60;;;13.50;99.90;;;13.89;80.09;100890.94;5097405;28;20047;-75
2021/05/18 02:44:42;;;;;;;12.85;11.00;;;13.50;99.90;;;13.87;80.57;100892.75;5097387;28;20054;-76
2021/05/18 02:50:06;;;;;;;15.30;11.45;;;13.60;99.90;;;14.01;80.07;100898.72;5097391;28;20039;-76
2021/05/18 02:52:38;;;;;;;17.35;11.45;;;13.70;99.90;;;14.05;79.83;100895.94;5097521;28;20084;-75
2021/05/18 02:55:12;;;;;;;14.95;12.20;;;13.70;99.90;;;14.04;80.09;100915.47;5097147;28;20074;-76
2021/05/18 02:57:50;;;;;;;16.67;11.55;;;13.70;99.90;;;14.16;79.78;100894.00;5096784;28;20554;-76
2021/05/18 03:00:22;;;;;;;14.07;11.90;;;13.80;99.90;;;14.25;79.45;100898.25;5115318;28;20043;-75
2021/05/18 03:02:51;;;;;;;17.35;12.07;;;13.90;99.90;;;14.23;79.14;100910.69;5115648;28;20044;-75
2021/05/18 03:05:23;;;;;;;17.33;11.80;;;14.00;99.90;;;14.17;79.20;100906.38;5097081;28;20051;-74
2021/05/18 03:07:56;;;;;;;12.75;10.02;;;13.90;99.90;;;14.14;79.73;100905.56;5097039;28;20055;-76
2021/05/18 03:10:25;;;;;;;13.07;9.48;;;13.80;99.90;;;14.17;79.60;100900.16;5114933;28;20438;-76
2021/05/18 03:12:53;;;;;;;12.63;9.60;;;13.80;99.90;;;14.15;79.77;100902.00;5115159;28;20048;-74
2021/05/18 03:15:21;;;;;;;15.05;10.35;;;13.80;99.90;;;14.10;80.01;100903.84;5115049;28;20048;-75
2021/05/18 03:17:50;;;;;;;16.45;11.20;;;13.70;99.90;;;13.47;79.72;100804.88;5114945;28;20035;-75
2021/05/18 03:20:18;;;;;;;13.93;10.20;;;13.70;99.90;;;14.07;80.49;100904.78;5096694;28;20082;-74
2021/05/18 03:22:47;;;;;;;15.52;10.70;;;13.70;99.90;;;14.16;79.78;100911.72;5096617;28;20108;-75
2021/05/18 03:25:15;;;;;;;13.30;11.07;;;13.80;99.90;;;14.06;79.57;100880.88;5114742;28;20566;-74
2021/05/18 03:27:44;;;;;;;19.13;12.02;;;13.90;99.90;;;14.07;80.37;100914.56;5096527;28;20059;-74
2021/05/18 03:30:22;;;;;;;19.38;12.40;;;13.80;99.90;;;14.14;80.34;100911.75;5114562;28;20122;-75
2021/05/18 03:35:37;;;;;;;15.77;11.52;;;13.70;99.90;;;14.05;80.78;100917.22;5114707;28;20438;-74
2021/05/18 03:38:14;;;;;;;15.50;12.00;;;13.80;99.90;;;14.06;81.26;100915.44;5096328;28;20048;-74
2021/05/18 03:40:47;;;;;;;18.38;12.60;;;13.70;99.90;;;14.06;81.15;100926.09;5114717;28;20056;-75
2021/05/18 03:43:32;;;;;;;15.90;12.20;;;13.70;99.90;;;14.05;81.55;100921.69;5096445;28;20043;-74
2021/05/18 03:48:56;;;;;;;16.15;12.55;;;13.70;99.90;;;14.14;80.70;100927.72;5113510;28;20113;-76
2021/05/18 03:54:18;;;;;;;18.30;12.65;;;13.80;99.90;;;14.14;80.43;100938.38;5096206;28;20059;-74
2021/05/18 04:05:14;;;;;;;22.60;12.40;;;13.60;99.90;;;13.69;81.93;100924.94;5113862;28;20058;-73
2021/05/18 04:11:00;;;;;;;15.20;11.35;;;13.40;99.90;;;13.65;82.47;100915.25;5011145;28;20054;-75
2021/05/18 04:19:00;;;;;;;17.10;12.00;;;13.50;99.90;;;13.86;82.26;100957.47;5113649;28;20096;-74
2021/05/18 04:21:42;;;;;;;16.42;12.85;;;13.60;99.90;;;13.82;82.41;100939.81;5113834;28;20058;-75
2021/05/18 04:24:32;;;;;;;17.58;12.43;;;13.60;99.90;;;13.86;82.44;100953.00;5095603;28;20412;-71
2021/05/18 04:49:40;;;;;;;25.33;18.38;;;13.40;99.90;;;13.67;83.16;100972.81;5095026;28;20044;-79
2021/05/18 04:52:10;;;;;;;30.80;19.95;;;13.40;99.90;;;13.76;83.57;100978.03;5113448;28;20455;-80
2021/05/18 05:00:27;;;;;;;;;;;13.60;99.90;;;13.93;82.68;100975.97;5011063;28;20109;-75
2021/05/18 05:03:18;;;;;;;27.10;20.77;;;13.70;99.90;;;13.85;82.73;100980.53;5010783;28;19922;-80
2021/05/18 05:08:40;;;;;;;28.05;20.35;;;13.70;99.90;;;14.09;82.44;100987.22;5113374;28;20048;-76
2021/05/18 05:14:18;;;;;;;31.77;19.92;;;13.90;99.90;;;14.22;81.31;100984.34;5078878;28;20078;-74
2021/05/18 05:16:46;;;;;;;25.90;19.02;;;14.00;99.90;;;14.25;81.39;100989.59;5095026;28;20061;-75
2021/05/18 05:19:14;;;;;;;27.02;18.83;;;14.00;99.90;;;14.35;81.31;100985.00;5116603;28;20107;-77
2021/05/18 05:21:43;;;;;;;26.95;18.55;;;14.00;99.90;;;14.38;80.76;100995.63;5117555;28;20047;-74
2021/05/18 05:24:12;;;;;;;28.23;18.33;;;14.10;99.90;;;14.34;80.65;100994.78;5117288;28;20515;-75
2021/05/18 05:26:40;;;;;;;23.67;16.63;;;14.10;99.90;;;14.44;80.45;100995.47;5116849;28;20409;-74
2021/05/18 05:29:09;;;;;;;25.40;17.73;;;14.10;99.90;;;14.47;79.87;101006.09;5098854;28;20047;-74
2021/05/18 05:31:38;;;;;;;26.98;18.30;;;14.20;99.90;;;14.48;80.05;101002.50;5117152;28;20043;-74
2021/05/18 05:34:07;;;;;;;26.50;18.67;;;14.20;99.90;;;14.51;79.70;101002.47;5117038;28;20047;-74
2021/05/18 05:36:35;;;;;;;27.98;17.67;;;14.20;99.90;;;14.53;79.81;101000.66;5117060;28;20073;-74
2021/05/18 05:39:08;;;;;;;29.98;18.23;;;14.30;99.90;;;14.47;79.50;101014.06;5098584;28;20047;-73
2021/05/18 05:41:36;;;;;;;27.15;17.92;;;14.20;99.90;;;14.40;79.40;101009.78;5116721;28;20035;-74
2021/05/18 05:44:06;;;;;;;25.85;16.88;;;14.20;99.90;;;14.39;79.66;101013.34;5116526;28;20048;-74
2021/05/18 05:46:34;;;;;;;29.48;16.70;;;14.10;99.90;;;14.41;79.72;101022.16;5116834;28;20059;-73
2021/05/18 05:49:03;;;;;;;30.65;17.33;;;14.10;99.90;;;14.41;80.13;101014.19;5116828;28;20048;-74
2021/05/18 05:51:31;;;;;;;27.27;16.35;;;14.00;99.90;;;14.21;79.97;101034.88;5098003;28;20039;-74
2021/05/18 05:54:00;;;;;;;28.38;17.73;;;13.90;99.90;;;13.87;81.04;101028.34;5098370;28;20051;-73
2021/05/18 05:56:30;;;;;;;28.88;18.50;;;13.60;99.90;;;13.92;81.69;101024.72;5116273;28;20062;-74
2021/05/18 05:59:00;;;;;;;24.45;16.92;;;13.60;99.90;;;13.95;81.03;101031.78;5098259;28;20101;-73
2021/05/18 06:01:29;;;;;;;28.35;17.50;;;13.70;99.90;;;13.89;81.13;101026.56;5116657;28;20127;-73
2021/05/18 06:03:57;;;;;;;26.30;18.23;;;13.60;99.90;;;13.87;81.31;101033.69;5098198;28;20400;-76
2021/05/18 06:06:25;;;;;;;30.38;18.67;;;13.60;99.90;;;13.68;82.20;101035.75;5116075;28;20046;-74
2021/05/18 06:08:53;;;;;;;29.50;18.75;;;13.50;99.90;;;13.95;82.12;101043.31;5116396;28;20048;-73
2021/05/18 06:11:26;;;;;;;31.50;18.92;;;13.60;99.90;;;14.12;82.51;101041.25;5098026;28;20120;-73
2021/05/18 06:14:05;;;;;;;32.20;18.35;;;13.80;99.90;;;14.08;81.83;101046.63;5098006;28;20050;-73
2021/05/18 06:42:00;;;;;;;24.63;16.05;;;13.90;99.90;;;14.18;79.46;101070.44;5115873;28;20044;-73
2021/05/18 06:47:29;;;;;;;19.40;15.07;;;14.00;99.90;;;14.42;77.74;101083.34;5115748;28;20058;-74
2021/05/18 06:50:00;;;;;;;28.02;16.00;;;14.20;99.90;;;14.53;78.83;101080.53;5115580;28;20066;-78
2021/05/18 06:52:28;;;;;;;23.80;15.25;;;14.30;99.90;;;14.67;79.16;101080.28;5115314;28;20551;-73
2021/05/18 06:54:56;;;;;;;17.65;14.32;;;14.40;99.90;;;14.83;78.71;101089.72;5115530;28;20047;-74
2021/05/18 06:57:42;;;;;;;21.65;14.52;;;14.50;99.90;;;14.92;78.58;101095.78;5115431;28;20060;-74
2021/05/18 07:00:13;;;;;;;19.35;14.05;;;14.70;99.90;;;14.99;76.65;101086.78;5097131;28;20481;-76
2021/05/18 07:02:44;;;;;;;19.30;13.73;;;14.80;99.90;;;14.40;75.85;100999.13;5115381;28;20039;-79
2021/05/18 07:05:17;;;;;;;15.90;13.02;;;14.80;99.90;;;14.85;75.86;101091.47;5097122;28;20435;-79
2021/05/18 07:07:49;;;;;;;21.88;14.23;;;14.70;99.90;;;15.00;77.09;101101.84;5115357;28;20042;-77
2021/05/18 07:10:17;;;;;;;20.73;14.48;;;14.70;99.90;;;15.21;77.29;101097.91;5097011;28;20043;-76
2021/05/18 07:12:44;;;;;;;21.27;13.75;;;15.00;99.90;;;15.41;76.98;101109.03;5115091;28;20061;-64
2021/05/18 07:15:14;;;;;;;20.10;14.00;;;15.20;99.90;;;15.52;76.10;101106.19;5115061;28;20097;-64
2021/05/18 07:17:43;;;;;;;19.23;14.10;;;15.30;99.90;;;15.77;75.42;101102.09;5115439;28;20051;-68
2021/05/18 07:20:18;;;;;;;20.13;13.23;;;15.60;99.90;;;15.70;72.99;101117.31;5115038;28;20124;-65
2021/05/18 07:22:46;;;;;;;17.25;12.82;;;15.60;99.90;;;15.63;72.22;101106.81;5096418;28;20047;-64
2021/05/18 07:25:14;;;;;;;17.05;13.00;;;15.50;99.90;;;15.08;72.73;101021.75;5114607;28;20434;-65
2021/05/18 07:27:42;;;;;;;17.98;12.10;;;15.40;99.90;;;15.68;72.89;101111.16;5114721;28;20047;-65
2021/05/18 07:30:13;;;;;;;15.75;12.57;;;15.40;99.90;;;15.73;72.27;101108.38;5096390;28;20462;-66
2021/05/18 07:32:41;;;;;;;14.90;13.02;;;15.50;99.90;;;15.78;71.99;101118.03;5096531;28;20498;-65
2021/05/18 07:35:12;;;;;;;17.77;12.63;;;15.60;99.90;;;15.93;72.35;101127.53;5114679;28;20054;-65
2021/05/18 07:37:41;;;;;;;17.50;12.32;;;15.70;99.90;;;16.09;72.11;101123.56;5114494;28;20392;-64
2021/05/18 07:40:11;;;;;;;15.98;12.80;;;15.90;99.90;;;16.16;71.18;101111.88;5113792;28;20039;-64
2021/05/18 07:42:39;;;;;;;26.92;12.85;;;16.00;99.90;;;16.10;70.90;101131.53;5114313;28;20107;-63
2021/05/18 07:45:08;;;;;;;14.55;12.02;;;15.90;99.90;;;16.02;71.04;101128.19;5096229;28;20051;-65
2021/05/18 07:47:38;;;;;;;17.25;12.43;;;15.80;99.90;;;16.05;70.58;101133.44;5114534;28;20067;-65
2021/05/18 07:50:10;;;;;;;14.77;11.98;;;15.80;99.90;;;16.28;70.38;101132.91;5114106;28;20044;-65
2021/05/18 08:01:06;;;;;;;17.52;12.88;;;15.90;99.90;;;16.34;70.61;101138.09;5087895;28;20147;-65
2021/05/18 08:06:20;;;;;;;18.08;13.73;;;16.20;99.90;;;16.41;69.16;101142.41;5114178;28;20043;-65
2021/05/18 08:08:49;;;;;;;15.48;11.18;;;16.20;99.90;;;16.54;69.32;101149.22;5114060;28;20047;-66
2021/05/18 08:11:18;;;;;;;18.83;12.95;;;16.30;99.90;;;16.66;69.41;101143.59;5114058;28;20075;-65
2021/05/18 08:13:55;;;;;;;14.50;11.82;;;16.50;99.90;;;16.75;67.70;101142.47;5113763;28;20043;-64
2021/05/18 08:19:27;;;;;;;14.48;11.85;;;16.70;99.90;;;17.03;65.36;101152.41;5113799;28;20093;-66
2021/05/18 08:22:15;;;;;;;16.77;12.17;;;16.90;99.90;;;17.37;66.96;101148.81;5113925;28;20127;-67
2021/05/18 09:48:36;;;;;;;13.43;10.73;;;16.10;99.90;;;16.53;63.64;101184.84;5094678;28;20043;-68
2021/05/18 10:35:41;;;;;;;8.23;6.05;;;18.10;99.90;;;17.85;52.92;101200.97;5115871;28;20085;-66
2021/05/18 10:38:12;;;;;;;9.65;6.72;;;17.80;99.90;;;17.37;54.05;101103.38;5115549;28;20119;-64
2021/05/18 10:40:41;;;;;;;7.05;6.10;;;17.80;99.90;;;17.91;54.52;101187.41;5115534;28;20058;-64
2021/05/18 10:43:30;;;;;;;6.50;5.78;;;17.80;99.90;;;17.82;53.71;101207.31;5115238;28;20040;-67
2021/05/18 10:46:23;;;;;;;9.90;5.82;;;17.70;99.90;;;17.21;53.57;101206.34;5115181;28;20122;-63
2021/05/18 10:49:09;;;;;;;8.60;6.50;;;17.20;99.90;;;17.26;53.63;101207.97;5115495;28;20082;-68
2021/05/18 10:51:53;;;;;;;8.52;6.35;;;17.10;99.90;;;17.45;54.95;101211.00;5115292;28;20138;-72
2021/05/18 10:54:36;;;;;;;15.85;8.13;;;17.20;99.90;;;17.46;57.14;101210.13;5115472;28;20047;-70
2021/05/18 10:57:21;;;;;;;12.23;7.68;;;17.20;99.90;;;17.53;56.82;101214.41;5115298;28;20056;-70
2021/05/18 10:59:56;;;;;;;10.57;7.18;;;17.30;99.90;;;17.22;55.34;101203.63;5114240;28;20043;-68
2021/05/18 11:02:29;;;;;;;8.65;6.53;;;17.20;99.90;;;17.08;56.81;101205.75;5115228;28;20055;-67
2021/05/18 11:05:02;;;;;;;6.00;5.40;;;17.00;99.90;;;16.79;54.93;101211.84;5114923;28;20519;-66
2021/05/18 11:07:35;;;;;;;6.25;4.97;;;16.80;99.90;;;16.47;54.43;101216.16;5115248;28;20039;-67
2021/05/18 11:10:07;;;;;;;8.00;5.80;;;16.50;99.90;;;16.66;57.35;101221.06;5096884;28;20059;-68
2021/05/18 11:12:37;;;;;;;9.27;5.78;;;16.50;99.90;;;16.62;55.36;101205.13;5115204;28;20040;-66
2021/05/18 11:15:12;;;;;;;11.57;6.10;;;16.60;99.90;;;16.65;56.46;101218.41;5114835;28;20084;-69
2021/05/18 11:17:42;;;;;;;7.68;5.50;;;16.50;99.90;;;16.75;56.32;101202.13;5114787;28;20281;-68
2021/05/18 11:20:23;;;;;;;7.97;5.30;;;16.70;99.90;;;16.88;55.98;101221.41;5114960;28;20369;-68
2021/05/18 11:25:47;;;;;;;7.25;5.18;;;16.70;99.90;;;16.71;54.15;101221.81;5096338;28;20044;-69
2021/05/18 11:28:23;;;;;;;10.45;4.90;;;16.60;99.90;;;16.62;55.17;101226.50;5114891;28;20043;-68
2021/05/18 11:30:53;;;;;;;8.93;5.65;;;16.50;99.90;;;16.66;55.38;101233.53;5114923;28;20040;-69
2021/05/18 11:33:30;;;;;;;7.95;5.75;;;16.50;99.90;;;16.86;56.18;101231.28;5114791;28;20043;-69
2021/05/18 11:36:10;;;;;;;6.55;5.13;;;16.70;99.90;;;16.38;54.48;101142.47;5114844;28;20044;-70
2021/05/18 11:38:41;;;;;;;6.82;4.97;;;16.80;99.90;;;17.01;55.86;101250.47;5114277;28;20051;-68
2021/05/18 11:41:09;;;;;;;8.43;5.50;;;16.80;99.90;;;17.11;54.68;101245.78;5096023;28;20044;-71
2021/05/18 11:43:38;;;;;;;5.10;4.40;;;16.90;99.90;;;16.30;53.74;101149.78;5096247;28;20550;-69
2021/05/18 11:46:09;;;;;;;8.75;4.82;;;16.80;99.90;;;17.06;55.40;101253.03;5114514;28;20134;-70
2021/05/18 11:48:40;;;;;;;7.93;5.10;;;16.90;99.90;;;16.80;55.30;101266.16;5096184;28;20499;-68
2021/05/18 11:51:11;;;;;;;5.32;4.68;;;16.70;99.90;;;16.87;54.79;101251.72;5114426;28;20047;-68
2021/05/18 11:53:43;;;;;;;5.85;4.22;;;16.70;99.90;;;16.85;55.22;101253.56;5114008;28;20058;-69
2021/05/18 11:56:22;;;;;;;7.00;4.35;;;16.70;99.90;;;16.84;53.50;101278.53;5095974;28;20066;-69
2021/05/18 11:58:59;;;;;;;5.78;4.10;;;16.70;99.90;;;16.95;54.87;101263.13;5096002;28;20060;-69
2021/05/18 12:01:27;;;;;;;11.27;5.22;;;16.70;99.90;;;17.13;54.23;101266.19;5114016;28;20054;-69
2021/05/18 12:04:04;;;;;;;7.32;4.85;;;16.90;99.90;;;16.92;54.97;101264.06;5095824;28;20040;-68
2021/05/18 12:06:35;;;;;;;4.55;4.15;;;16.80;99.90;;;16.85;52.85;101267.81;5114104;28;20059;-69
2021/05/18 12:09:04;;;;;;;;;;;16.70;99.90;;;16.87;54.15;101252.63;5114312;28;20046;-69
2021/05/18 12:11:33;;;;;;;6.45;4.70;;;16.80;99.90;;;17.01;54.02;101273.66;5113728;28;19927;-68
2021/05/18 12:14:11;;;;;;;9.25;5.00;;;16.80;99.90;;;17.00;52.72;101278.13;5113907;28;20077;-72
2021/05/18 12:16:44;;;;;;;8.15;6.68;;;16.90;99.90;;;17.09;55.16;101267.19;5113711;28;20104;-69
2021/05/18 12:19:14;;;;;;;8.45;6.07;;;16.90;99.90;;;17.31;55.35;101270.22;5113880;28;20515;-68
2021/05/18 12:21:45;;;;;;;11.80;6.85;;;17.20;99.90;;;17.39;54.75;101272.69;5113403;28;20051;-68
2021/05/18 12:24:16;;;;;;;9.73;6.50;;;17.20;99.90;;;17.50;56.32;101279.56;5113921;28;20075;-68
2021/05/18 12:26:51;;;;;;;8.98;6.85;;;17.30;99.90;;;17.21;55.49;101275.84;5113412;28;20066;-69
2021/05/18 12:29:35;;;;;;;13.27;6.95;;;17.10;99.90;;;17.19;56.54;101280.34;5113818;28;20067;-72
2021/05/18 12:32:21;;;;;;;8.38;5.45;;;17.10;99.90;;;17.23;56.08;101282.03;5113782;28;20047;-70
2021/05/18 12:34:51;;;;;;;8.52;5.80;;;17.10;99.90;;;17.33;57.17;101278.19;5113465;28;20100;-73
2021/05/18 12:37:32;;;;;;;9.38;5.70;;;17.20;99.90;;;16.83;55.71;101186.78;5113351;28;20046;-71
2021/05/18 12:40:03;;;;;;;9.50;6.03;;;17.20;99.90;;;17.31;56.14;101269.31;5095482;28;20059;-70
2021/05/18 12:42:31;;;;;;;8.27;5.28;;;17.20;99.90;;;17.49;56.49;101261.75;5113155;28;20484;-70
2021/05/18 12:45:04;;;;;;;8.75;5.50;;;17.30;99.90;;;17.52;55.92;101283.06;5113321;28;20075;-71
2021/05/18 12:47:35;;;;;;;6.40;5.18;;;17.30;99.90;;;17.73;55.55;101289.66;5113501;28;20101;-71
2021/05/18 12:50:06;;;;;;;9.07;5.35;;;17.50;99.90;;;17.71;56.41;101278.97;5095235;28;20093;-70
2021/05/18 12:52:36;;;;;;;;;;;17.60;99.90;;;17.58;54.80;101280.22;5113884;28;20092;-70
2021/05/18 12:55:23;;;;;;;5.40;4.85;;;17.50;99.90;;;17.18;54.17;101274.13;5113037;28;19920;-72
2021/05/18 12:57:54;;;;;;;7.70;4.72;;;17.30;99.90;;;17.36;56.20;101280.81;5113307;28;20759;-73
2021/05/18 13:00:27;;;;;;;7.50;4.88;;;17.20;99.90;;;17.52;56.37;101277.72;5112777;28;20040;-71
2021/05/18 13:02:56;;;;;;;6.82;5.38;;;17.40;99.90;;;17.55;55.87;101264.28;5094739;28;20048;-71
2021/05/18 13:05:29;;;;;;;6.97;5.22;;;17.50;99.90;;;17.36;55.21;101287.03;5094876;28;20036;-73
2021/05/18 13:08:11;;;;;;;7.88;4.70;;;17.30;99.90;;;17.36;55.35;101287.03;5112927;28;20044;-70
2021/05/18 13:10:57;;;;;;;7.57;3.92;;;17.20;99.90;;;17.41;56.09;101286.91;5113228;28;20050;-70
2021/05/18 13:13:26;;;;;;;6.13;4.10;;;17.20;99.90;;;17.41;55.10;101277.09;5112905;28;20489;-70
2021/05/18 13:16:10;;;;;;;7.50;4.70;;;17.20;99.90;;;17.09;54.73;101287.72;5113165;28;20062;-71
2021/05/18 13:18:40;;;;;;;5.35;4.85;;;17.00;99.90;;;16.96;56.17;101288.91;5094976;28;20101;-68
2021/05/18 13:21:19;;;;;;;5.63;4.60;;;16.80;99.90;;;16.87;55.60;101287.34;5113146;28;20054;-71
2021/05/18 13:23:59;;;;;;;7.95;5.00;;;16.70;99.90;;;16.74;55.09;101275.16;5113073;28;20481;-71
2021/05/18 13:26:29;;;;;;;4.50;4.10;;;16.60;99.90;;;16.69;54.49;101287.75;5112820;28;20036;-70
2021/05/18 13:28:59;;;;;;;7.13;4.15;;;16.60;99.90;;;16.24;56.15;101198.84;5112916;28;20100;-72
2021/05/18 13:31:30;;;;;;;6.72;4.97;;;16.60;99.90;;;16.82;55.33;101288.38;5112770;28;20046;-73
2021/05/18 13:33:59;;;;;;;6.90;4.43;;;16.70;99.90;;;16.79;55.17;101259.94;5113057;28;20465;-72
2021/05/18 13:36:43;;;;;;;7.97;5.20;;;16.80;99.90;;;16.87;54.79;101284.69;5112784;28;20130;-71
2021/05/18 13:39:14;;;;;;;5.40;4.83;;;16.70;99.90;;;16.79;55.74;101289.31;5114659;28;20138;-71
2021/05/18 13:41:43;;;;;;;7.35;4.78;;;16.70;99.90;;;16.97;54.79;101294.25;5116915;28;20040;-70
2021/05/18 13:44:13;;;;;;;6.68;5.05;;;16.80;99.90;;;16.90;54.62;101289.94;5098466;28;20447;-69
2021/05/18 13:46:44;;;;;;;8.68;5.30;;;16.80;99.90;;;16.94;53.77;101285.41;5116735;28;20055;-69
2021/05/18 13:49:13;;;;;;;16.33;4.88;;;16.80;99.90;;;16.61;54.98;101262.13;5116440;28;20113;-69
2021/05/18 13:51:43;;;;;;;10.77;4.85;;;16.60;99.90;;;16.91;53.71;101288.16;5116598;28;20075;-69
2021/05/18 13:54:32;;;;;;;7.60;5.30;;;16.70;99.90;;;16.89;54.79;101268.59;5098323;28;20127;-69
2021/05/18 13:57:00;;;;;;;8.00;4.78;;;16.80;99.90;;;17.17;55.48;101303.56;5116145;28;20056;-69
2021/05/18 13:59:29;;;;;;;6.13;4.45;;;17.10;99.90;;;17.13;54.78;101300.06;5097822;28;20043;-71
2021/05/18 14:01:58;;;;;;;5.72;4.95;;;17.00;99.90;;;17.17;53.43;101296.41;5097641;28;20447;-71
2021/05/18 14:04:27;;;;;;;11.20;5.32;;;17.00;99.90;;;17.08;52.85;101292.19;5116044;28;20039;-73
2021/05/18 14:07:14;;;;;;;7.57;4.65;;;17.00;99.90;;;17.04;53.43;101290.50;5115856;28;20558;-69
2021/05/18 14:09:52;;;;;;;7.25;4.80;;;16.90;99.90;;;17.10;53.82;101290.34;5097505;28;20050;-69
2021/05/18 14:12:20;;;;;;;7.18;4.82;;;16.90;99.90;;;17.36;54.55;101291.50;5115878;28;20463;-70
2021/05/18 14:14:48;;;;;;;7.68;5.15;;;17.10;99.90;;;17.26;52.74;101289.97;5116410;28;20043;-68
2021/05/18 14:17:17;;;;;;;6.07;4.75;;;17.10;99.90;;;17.22;52.89;101286.50;5115832;28;20043;-69
2021/05/18 14:19:45;;;;;;;7.03;4.80;;;17.00;99.90;;;17.32;53.44;101284.47;5115742;28;20237;-71
2021/05/18 14:22:13;;;;;;;6.20;4.32;;;17.10;99.90;;;17.41;53.10;101293.13;5115965;28;20093;-72
2021/05/18 14:24:50;;;;;;;7.00;3.72;;;17.20;99.90;;;17.40;52.22;101293.19;5115734;28;20122;-67
2021/05/18 14:27:19;;;;;;;9.95;4.05;;;17.20;99.90;;;17.41;51.64;101289.56;5116084;28;20069;-64
2021/05/18 14:29:48;;;;;;;5.88;4.47;;;17.20;99.90;;;17.40;51.80;101302.06;5116247;28;20350;-66
2021/05/18 14:32:17;;;;;;;7.53;5.05;;;17.20;99.90;;;17.32;51.75;101285.34;5115765;28;20058;-66